createdAt,value
2022-10-24T00:01:48.105Z,2.20
2022-10-24T00:04:16.388Z,2.08
2022-10-24T00:06:44.901Z,2.20
2022-10-24T00:09:14.598Z,2.45
2022-10-24T00:11:43.525Z,2.20
2022-10-24T00:14:12.168Z,2.28
2022-10-24T00:16:40.467Z,2.58
2022-10-24T00:19:08.803Z,2.28
2022-10-24T00:21:37.156Z,2.25
2022-10-24T00:24:06.900Z,2.22
2022-10-24T00:26:37.468Z,2.25
2022-10-24T00:29:06.197Z,2.33
2022-10-24T00:31:34.805Z,2.22
2022-10-24T00:34:05.464Z,2.50
2022-10-24T00:36:33.906Z,2.58
2022-10-24T00:39:02.250Z,2.85
2022-10-24T00:41:33.594Z,2.53
2022-10-24T00:44:19.786Z,2.75
2022-10-24T00:46:51.950Z,2.20
2022-10-24T00:49:24.241Z,2.53
2022-10-24T00:51:56.919Z,2.63
2022-10-24T00:54:26.064Z,2.45
2022-10-24T00:57:03.802Z,2.33
2022-10-24T00:59:35.791Z,2.63
2022-10-24T01:02:05.115Z,2.40
2022-10-24T01:04:33.516Z,2.35
2022-10-24T01:07:12.046Z,2.55
2022-10-24T01:09:56.045Z,2.80
2022-10-24T01:12:32.015Z,2.80
2022-10-24T01:15:10.061Z,2.40
2022-10-24T01:17:44.124Z,2.30
2022-10-24T01:20:35.415Z,2.50
2022-10-24T01:23:24.668Z,2.33
2022-10-24T01:26:04.561Z,2.70
2022-10-24T01:28:40.677Z,2.22
2022-10-24T01:31:13.683Z,2.28
2022-10-24T01:33:50.133Z,2.70
2022-10-24T01:36:22.157Z,2.65
2022-10-24T01:38:56.180Z,3.00
2022-10-24T01:41:28.206Z,2.47
2022-10-24T01:44:03.262Z,2.70
2022-10-24T01:46:37.157Z,2.83
2022-10-24T01:49:10.973Z,2.90
2022-10-24T01:51:41.156Z,2.90
2022-10-24T01:54:11.785Z,2.85
2022-10-24T01:56:40.233Z,2.70
2022-10-24T01:59:09.921Z,2.80
2022-10-24T02:01:40.700Z,3.00
2022-10-24T02:04:12.157Z,3.30
2022-10-24T02:06:43.428Z,3.40
2022-10-24T02:09:17.732Z,3.70
2022-10-24T02:11:48.362Z,4.05
2022-10-24T02:14:21.097Z,4.03
2022-10-24T02:16:51.554Z,4.05
2022-10-24T02:19:20.168Z,3.42
2022-10-24T02:22:02.300Z,3.38
2022-10-24T02:24:34.793Z,3.53
2022-10-24T02:27:07.487Z,3.38
2022-10-24T02:29:43.514Z,3.70
2022-10-24T02:32:16.670Z,3.05
2022-10-24T02:34:46.036Z,3.90
2022-10-24T02:37:17.179Z,3.88
2022-10-24T02:39:48.511Z,3.90
2022-10-24T02:42:17.822Z,3.90
2022-10-24T02:44:48.397Z,3.60
2022-10-24T02:47:22.332Z,3.55
2022-10-24T02:49:50.795Z,3.63
2022-10-24T02:52:19.957Z,3.67
2022-10-24T02:54:48.189Z,4.30
2022-10-24T02:57:17.278Z,4.45
2022-10-24T02:59:45.744Z,3.53
2022-10-24T03:02:14.049Z,3.88
2022-10-24T03:04:44.068Z,4.10
2022-10-24T03:07:12.494Z,3.92
2022-10-24T03:09:40.835Z,3.53
2022-10-24T03:12:09.447Z,3.78
2022-10-24T03:14:37.842Z,3.78
2022-10-24T03:17:06.184Z,3.88
2022-10-24T03:19:36.117Z,3.83
2022-10-24T03:22:05.745Z,3.67
2022-10-24T03:24:43.847Z,3.97
2022-10-24T03:27:13.290Z,3.80
2022-10-24T03:29:41.613Z,3.80
2022-10-24T03:32:09.951Z,4.45
2022-10-24T03:34:38.355Z,3.80
2022-10-24T03:37:08.410Z,4.18
2022-10-24T03:39:37.240Z,3.55
2022-10-24T03:42:05.882Z,3.70
2022-10-24T03:44:34.531Z,3.88
2022-10-24T03:47:03.025Z,4.10
2022-10-24T03:49:32.319Z,4.50
2022-10-24T03:52:00.956Z,3.92
2022-10-24T03:54:30.930Z,3.97
2022-10-24T03:56:59.277Z,4.55
2022-10-24T03:59:28.071Z,3.80
2022-10-24T04:01:56.498Z,3.65
2022-10-24T04:04:25.318Z,3.67
2022-10-24T04:06:53.654Z,3.92
2022-10-24T04:09:22.455Z,4.10
2022-10-24T04:11:53.488Z,4.20
2022-10-24T04:14:21.809Z,5.03
2022-10-24T04:16:50.579Z,4.82
2022-10-24T04:19:21.365Z,4.70
2022-10-24T04:21:49.944Z,4.90
2022-10-24T04:24:18.764Z,5.07
2022-10-24T04:26:47.171Z,4.90
2022-10-24T04:29:16.846Z,4.25
2022-10-24T04:31:45.526Z,4.03
2022-10-24T04:34:13.836Z,4.50
2022-10-24T04:36:42.142Z,4.43
2022-10-24T04:39:10.708Z,3.87
2022-10-24T04:41:39.122Z,4.20
2022-10-24T04:44:07.963Z,3.53
2022-10-24T04:46:37.570Z,3.40
2022-10-24T04:49:06.358Z,3.67
2022-10-24T04:51:34.798Z,3.33
2022-10-24T04:54:03.243Z,4.67
2022-10-24T04:56:34.853Z,5.33
2022-10-24T04:59:03.201Z,5.13
2022-10-24T05:01:31.567Z,4.87
2022-10-24T05:06:35.111Z,5.40
2022-10-24T05:09:03.504Z,5.13
2022-10-24T05:11:32.231Z,5.43
2022-10-24T05:14:00.634Z,5.60
2022-10-24T05:16:28.968Z,5.43
2022-10-24T05:18:57.264Z,5.40
2022-10-24T05:21:26.899Z,5.30
2022-10-24T05:23:55.333Z,5.23
2022-10-24T05:26:23.934Z,4.90
2022-10-24T05:28:52.770Z,5.10
2022-10-24T05:31:21.754Z,4.90
2022-10-24T05:33:50.106Z,4.93
2022-10-24T05:36:18.410Z,5.47
2022-10-24T05:38:48.103Z,4.97
2022-10-24T05:41:16.490Z,5.43
2022-10-24T05:43:44.770Z,4.93
2022-10-24T05:46:12.999Z,5.00
2022-10-24T05:48:42.278Z,4.37
2022-10-24T05:51:10.534Z,5.17
2022-10-24T05:53:38.814Z,5.00
2022-10-24T05:56:08.673Z,4.80
2022-10-24T05:58:36.962Z,6.47
2022-10-24T06:01:05.466Z,6.03
2022-10-24T06:03:33.848Z,5.80
2022-10-24T06:06:05.466Z,6.03
2022-10-24T06:08:35.366Z,9.30
2022-10-24T06:11:03.759Z,7.27
2022-10-24T06:13:36.043Z,7.80
2022-10-24T06:16:04.997Z,7.13
2022-10-24T06:18:33.810Z,9.13
2022-10-24T06:21:03.318Z,8.87
2022-10-24T06:23:32.226Z,9.70
2022-10-24T06:26:00.643Z,5.87
2022-10-24T06:28:29.182Z,6.70
2022-10-24T06:30:58.802Z,11.30
2022-10-24T06:33:27.138Z,11.87
2022-10-24T06:35:55.381Z,9.77
2022-10-24T06:38:23.588Z,8.07
2022-10-24T06:40:52.144Z,9.13
2022-10-24T06:43:20.841Z,6.23
2022-10-24T06:45:49.102Z,4.80
2022-10-24T06:48:18.718Z,6.87
2022-10-24T06:50:46.993Z,9.53
2022-10-24T06:53:15.403Z,8.43
2022-10-24T06:55:43.672Z,8.17
2022-10-24T06:58:11.880Z,8.37
2022-10-24T07:00:40.121Z,8.37
2022-10-24T07:03:08.394Z,7.93
2022-10-24T07:05:40.621Z,9.53
2022-10-24T07:08:09.088Z,7.97
2022-10-24T07:10:37.592Z,11.30
2022-10-24T07:13:05.804Z,8.50
2022-10-24T07:15:34.003Z,10.00
2022-10-24T07:18:02.511Z,9.23
2022-10-24T07:20:30.826Z,9.13
2022-10-24T07:23:00.578Z,10.13
2022-10-24T07:25:28.879Z,14.73
2022-10-24T07:27:57.142Z,9.70
2022-10-24T07:30:25.838Z,6.20
2022-10-24T07:32:55.583Z,15.63
2022-10-24T07:35:23.857Z,12.00
2022-10-24T07:37:53.535Z,6.33
2022-10-24T07:40:23.499Z,7.63
2022-10-24T07:42:51.896Z,7.57
2022-10-24T07:45:20.238Z,8.27
2022-10-24T07:47:50.937Z,6.40
2022-10-24T07:50:20.443Z,6.47
2022-10-24T07:52:49.892Z,5.83
2022-10-24T07:55:19.698Z,4.90
2022-10-24T07:57:49.676Z,5.20
2022-10-24T08:00:18.777Z,5.60
2022-10-24T08:02:47.203Z,6.45
2022-10-24T08:05:18.131Z,5.67
2022-10-24T08:07:56.262Z,5.70
2022-10-24T08:10:39.547Z,5.23
2022-10-24T08:13:11.566Z,6.10
2022-10-24T08:15:41.936Z,5.27
2022-10-24T08:18:10.306Z,4.77
2022-10-24T08:20:38.640Z,4.70
2022-10-24T08:23:07.161Z,4.47
2022-10-24T08:25:35.684Z,4.77
2022-10-24T08:28:06.660Z,5.07
2022-10-24T08:30:38.827Z,4.13
2022-10-24T08:33:07.114Z,3.30
2022-10-24T08:35:35.420Z,3.53
2022-10-24T08:38:03.841Z,3.20
2022-10-24T08:40:33.418Z,3.17
2022-10-24T08:43:01.813Z,3.40
2022-10-24T08:45:36.908Z,3.38
2022-10-24T08:48:10.378Z,3.10
2022-10-24T08:50:42.958Z,2.90
2022-10-24T08:53:14.361Z,3.22
2022-10-24T08:55:50.060Z,3.40
2022-10-24T08:58:22.175Z,3.63
2022-10-24T09:00:53.703Z,3.45
2022-10-24T09:03:51.288Z,3.30
2022-10-24T09:06:22.237Z,2.65
2022-10-24T09:08:54.537Z,3.00
2022-10-24T09:11:29.845Z,3.03
2022-10-24T09:14:01.095Z,3.07
2022-10-24T09:16:29.701Z,3.60
2022-10-24T09:19:00.564Z,3.33
2022-10-24T09:21:29.001Z,3.00
2022-10-24T09:23:57.785Z,11.13
2022-10-24T09:26:29.983Z,3.75
2022-10-24T09:28:58.495Z,3.97
2022-10-24T09:31:28.812Z,3.30
2022-10-24T09:34:00.434Z,3.70
2022-10-24T09:36:31.889Z,3.80
2022-10-24T09:39:24.259Z,3.17
2022-10-24T09:41:53.024Z,3.20
2022-10-24T09:44:34.376Z,3.20
2022-10-24T09:47:04.523Z,3.17
2022-10-24T09:49:36.820Z,3.40
2022-10-24T09:52:17.679Z,3.20
2022-10-24T09:54:47.492Z,3.90
2022-10-24T09:57:18.008Z,2.70
2022-10-24T09:59:48.233Z,3.10
2022-10-24T10:02:24.639Z,2.80
2022-10-24T10:05:26.996Z,3.10
2022-10-24T10:07:57.005Z,3.10
2022-10-24T10:10:30.021Z,3.13
2022-10-24T10:13:05.570Z,3.20
2022-10-24T10:15:38.497Z,3.08
2022-10-24T10:18:25.118Z,3.05
2022-10-24T10:21:10.212Z,3.10
2022-10-24T10:23:42.471Z,3.05
2022-10-24T10:26:28.953Z,2.90
2022-10-24T10:29:02.768Z,2.95
2022-10-24T10:31:40.711Z,3.20
2022-10-24T10:34:25.296Z,2.97
2022-10-24T10:37:35.770Z,2.70
2022-10-24T10:40:30.432Z,2.72
2022-10-24T10:43:12.042Z,2.58
2022-10-24T10:45:46.738Z,2.80
2022-10-24T10:48:37.857Z,3.00
2022-10-24T10:51:14.627Z,2.97
2022-10-24T10:53:52.826Z,2.40
2022-10-24T10:56:34.620Z,2.40
2022-10-24T10:59:24.697Z,2.72
2022-10-24T11:02:03.751Z,2.90
2022-10-24T11:04:39.708Z,2.80
2022-10-24T11:07:16.738Z,2.60
2022-10-24T11:09:47.890Z,2.88
2022-10-24T11:12:24.004Z,2.80
2022-10-24T11:14:58.585Z,2.60
2022-10-24T11:17:33.006Z,2.63
2022-10-24T11:20:17.185Z,2.50
2022-10-24T11:22:50.014Z,2.63
2022-10-24T11:25:26.843Z,2.70
2022-10-24T11:28:05.526Z,2.75
2022-10-24T11:30:43.532Z,2.78
2022-10-24T11:33:19.380Z,3.00
2022-10-24T11:36:08.512Z,2.70
2022-10-24T11:38:43.632Z,3.00
2022-10-24T11:41:42.405Z,2.72
2022-10-24T11:44:27.731Z,2.85
2022-10-24T11:47:06.560Z,3.08
2022-10-24T11:49:42.261Z,2.90
2022-10-24T11:52:17.945Z,2.80
2022-10-24T11:54:52.542Z,2.72
2022-10-24T11:57:25.461Z,2.85
2022-10-24T11:59:56.437Z,2.58
2022-10-24T12:03:08.071Z,2.88
2022-10-24T12:05:53.527Z,2.40
2022-10-24T12:08:42.427Z,3.03
2022-10-24T12:11:51.152Z,2.70
2022-10-24T12:14:47.569Z,2.60
2022-10-24T12:17:36.165Z,2.58
2022-10-24T12:20:08.079Z,2.50
2022-10-24T12:22:39.126Z,2.80
2022-10-24T12:25:17.684Z,2.42
2022-10-24T12:27:46.355Z,2.72
2022-10-24T12:30:24.163Z,2.60
2022-10-24T12:32:58.747Z,2.40
2022-10-24T12:35:46.899Z,2.30
2022-10-24T12:38:35.431Z,1.92
2022-10-24T12:41:09.386Z,2.20
2022-10-24T12:43:39.522Z,2.30
2022-10-24T12:46:44.718Z,1.98
2022-10-24T12:49:24.307Z,2.25
2022-10-24T12:51:56.405Z,2.20
2022-10-24T12:54:41.855Z,2.05
2022-10-24T12:57:26.403Z,2.55
2022-10-24T12:59:57.661Z,2.28
2022-10-24T13:02:49.106Z,2.67
2022-10-24T13:05:46.176Z,2.40
2022-10-24T13:08:25.946Z,2.30
2022-10-24T13:11:05.967Z,2.13
2022-10-24T13:13:59.458Z,2.22
2022-10-24T13:16:36.969Z,2.10
2022-10-24T13:19:15.355Z,1.73
2022-10-24T13:21:52.909Z,2.00
2022-10-24T13:24:29.810Z,2.20
2022-10-24T13:27:28.636Z,2.20
2022-10-24T13:30:35.224Z,2.20
2022-10-24T13:33:39.230Z,2.10
2022-10-24T13:36:16.674Z,2.22
2022-10-24T13:38:51.885Z,2.28
2022-10-24T13:41:28.248Z,2.30
2022-10-24T13:44:07.727Z,2.10
2022-10-24T13:46:42.070Z,2.25
2022-10-24T13:49:17.976Z,2.20
2022-10-24T13:51:50.148Z,2.25
2022-10-24T13:54:24.654Z,2.10
2022-10-24T13:56:55.910Z,2.10
2022-10-24T13:59:31.757Z,2.20
2022-10-24T14:02:03.374Z,2.22
2022-10-24T14:04:32.729Z,2.20
2022-10-24T14:07:06.841Z,2.08
2022-10-24T14:09:43.289Z,2.17
2022-10-24T14:12:20.976Z,2.10
2022-10-24T14:14:51.228Z,2.28
2022-10-24T14:17:26.141Z,2.13
2022-10-24T14:19:58.090Z,2.35
2022-10-24T14:22:29.448Z,2.00
2022-10-24T14:24:59.222Z,2.45
2022-10-24T14:27:27.942Z,2.20
2022-10-24T14:30:00.308Z,2.05
2022-10-24T14:32:31.312Z,2.50
2022-10-24T14:37:34.365Z,3.80
2022-10-24T14:40:05.827Z,3.72
2022-10-24T14:42:34.303Z,2.53
2022-10-24T14:45:02.891Z,2.50
2022-10-24T14:47:34.209Z,2.20
2022-10-24T14:50:02.782Z,2.03
2022-10-24T14:52:36.757Z,2.10
2022-10-24T14:55:17.291Z,2.45
2022-10-24T14:57:50.010Z,2.40
2022-10-24T15:00:22.040Z,2.50
2022-10-24T15:02:52.498Z,2.83
2022-10-24T15:05:30.911Z,2.40
2022-10-24T15:08:22.839Z,2.80
2022-10-24T15:11:06.773Z,2.60
2022-10-24T15:13:51.041Z,2.83
2022-10-24T15:16:37.503Z,3.17
2022-10-24T15:19:07.422Z,3.00
2022-10-24T15:21:39.865Z,3.28
2022-10-24T15:24:19.671Z,3.00
2022-10-24T15:26:49.297Z,2.90
2022-10-24T15:29:21.218Z,3.50
2022-10-24T15:31:51.863Z,3.13
2022-10-24T15:34:21.803Z,3.00
2022-10-24T15:36:52.202Z,3.10
2022-10-24T15:39:24.530Z,3.10
2022-10-24T15:41:55.268Z,3.00
2022-10-24T15:44:26.717Z,3.50
2022-10-24T15:46:55.649Z,3.13
2022-10-24T15:49:24.360Z,3.65
2022-10-24T15:51:53.063Z,3.42
2022-10-24T15:54:23.481Z,3.63
2022-10-24T15:56:52.748Z,3.30
2022-10-24T15:59:26.679Z,3.45
2022-10-24T16:01:56.929Z,3.70
2022-10-24T16:04:25.815Z,3.30
2022-10-24T16:06:54.133Z,3.92
2022-10-24T16:09:25.152Z,3.40
2022-10-24T16:11:53.415Z,3.53
2022-10-24T16:14:36.094Z,3.60
2022-10-24T16:17:04.387Z,3.50
2022-10-24T16:19:32.616Z,3.60
2022-10-24T16:22:01.585Z,3.72
2022-10-24T16:24:30.439Z,4.07
2022-10-24T16:26:58.853Z,3.53
2022-10-24T16:29:28.922Z,3.75
2022-10-24T16:31:57.252Z,3.92
2022-10-24T16:34:25.852Z,4.03
2022-10-24T16:36:55.471Z,3.50
2022-10-24T16:39:42.947Z,3.78
2022-10-24T16:42:11.313Z,4.05
2022-10-24T16:44:41.472Z,4.28
2022-10-24T16:47:10.288Z,4.13
2022-10-24T16:49:41.395Z,4.38
2022-10-24T16:52:09.769Z,2.40
2022-10-24T16:54:39.177Z,1.35
2022-10-24T16:57:07.955Z,1.20
2022-10-24T16:59:36.335Z,1.10
2022-10-24T17:02:06.002Z,1.13
2022-10-24T17:04:34.624Z,1.10
2022-10-24T17:07:04.474Z,1.40
2022-10-24T17:09:32.994Z,1.20
2022-10-24T17:12:02.354Z,1.17
2022-10-24T17:14:34.117Z,2.08
2022-10-24T17:17:02.457Z,2.30
2022-10-24T17:19:34.476Z,2.30
2022-10-24T17:22:03.284Z,1.02
2022-10-24T17:24:33.641Z,1.95
2022-10-24T17:27:02.924Z,2.07
2022-10-24T17:29:33.411Z,1.90
2022-10-24T17:32:02.328Z,1.50
2022-10-24T17:34:32.813Z,2.13
2022-10-24T17:37:06.413Z,2.13
2022-10-24T17:39:44.790Z,3.20
2022-10-24T17:42:15.381Z,2.27
2022-10-24T17:44:44.073Z,2.63
2022-10-24T17:47:16.767Z,4.43
2022-10-24T17:49:46.443Z,2.70
2022-10-24T17:52:17.896Z,3.20
2022-10-24T17:54:46.100Z,2.30
2022-10-24T17:57:14.585Z,2.30
2022-10-24T17:59:42.965Z,3.17
2022-10-24T18:02:14.015Z,2.23
2022-10-24T18:04:44.748Z,2.10
2022-10-24T18:07:15.085Z,2.20
2022-10-24T18:09:43.436Z,2.30
2022-10-24T18:12:11.833Z,2.60
2022-10-24T18:14:40.109Z,2.80
2022-10-24T18:17:08.441Z,2.37
2022-10-24T18:19:36.787Z,2.60
2022-10-24T18:22:05.147Z,2.80
2022-10-24T18:24:35.562Z,3.00
2022-10-24T18:27:03.870Z,3.17
2022-10-24T18:29:32.257Z,3.50
2022-10-24T18:32:00.525Z,3.20
2022-10-24T18:34:28.831Z,3.40
2022-10-24T18:36:57.707Z,3.10
2022-10-24T18:39:29.237Z,2.80
2022-10-24T18:42:06.140Z,3.00
2022-10-24T18:44:35.739Z,3.40
2022-10-24T18:47:06.695Z,3.00
2022-10-24T18:49:36.821Z,2.90
2022-10-24T18:52:17.432Z,5.13
2022-10-24T18:54:58.455Z,3.40
2022-10-24T18:57:33.044Z,2.03
2022-10-24T19:00:02.130Z,2.90
2022-10-24T19:02:39.234Z,2.80
2022-10-24T19:05:16.748Z,2.20
2022-10-24T19:07:46.302Z,2.50
2022-10-24T19:10:20.561Z,2.20
2022-10-24T19:12:51.232Z,2.83
2022-10-24T19:15:22.083Z,2.23
2022-10-24T19:17:58.645Z,2.40
2022-10-24T19:20:28.623Z,1.90
2022-10-24T19:22:58.560Z,1.63
2022-10-24T19:25:26.931Z,1.80
2022-10-24T19:27:56.556Z,2.10
2022-10-24T19:30:25.049Z,2.00
2022-10-24T19:32:53.880Z,1.90
2022-10-24T19:35:23.517Z,2.33
2022-10-24T19:37:51.778Z,1.83
2022-10-24T19:40:21.487Z,2.47
2022-10-24T19:42:49.998Z,1.63
2022-10-24T19:45:22.795Z,1.60
2022-10-24T19:47:55.485Z,3.53
2022-10-24T19:50:24.722Z,2.77
2022-10-24T19:52:53.051Z,2.40
2022-10-24T19:55:22.847Z,2.10
2022-10-24T19:57:51.305Z,2.20
2022-10-24T20:00:23.681Z,2.47
2022-10-24T20:02:52.150Z,2.37
2022-10-24T20:05:20.386Z,2.70
2022-10-24T20:07:48.620Z,2.80
2022-10-24T20:10:17.183Z,2.90
2022-10-24T20:12:45.769Z,2.30
2022-10-24T20:15:15.824Z,2.40
2022-10-24T20:17:45.463Z,2.30
2022-10-24T20:20:14.111Z,2.07
2022-10-24T20:22:43.817Z,2.40
2022-10-24T20:25:12.343Z,1.70
2022-10-24T20:27:40.848Z,1.93
2022-10-24T20:30:11.303Z,2.63
2022-10-24T20:32:40.093Z,2.10
2022-10-24T20:35:13.942Z,1.90
2022-10-24T20:37:45.422Z,1.83
2022-10-24T20:40:13.935Z,1.97
2022-10-24T20:42:55.477Z,1.80
2022-10-24T20:45:24.098Z,2.00
2022-10-24T20:47:53.863Z,1.67
2022-10-24T20:50:24.548Z,1.87
2022-10-24T20:52:53.485Z,1.50
2022-10-24T20:55:39.411Z,1.60
2022-10-24T20:58:12.993Z,1.57
2022-10-24T21:00:42.433Z,1.80
2022-10-24T21:03:12.253Z,1.60
2022-10-24T21:05:42.051Z,1.57
2022-10-24T21:08:12.380Z,1.53
2022-10-24T21:10:41.075Z,1.57
2022-10-24T21:13:09.570Z,1.80
2022-10-24T21:15:37.812Z,1.70
2022-10-24T21:18:06.274Z,1.70
2022-10-24T21:20:34.604Z,1.67
2022-10-24T21:23:04.489Z,2.00
2022-10-24T21:25:32.820Z,2.00
2022-10-24T21:28:04.599Z,1.40
2022-10-24T21:30:36.904Z,1.80
2022-10-24T21:33:09.066Z,1.60
2022-10-24T21:35:40.178Z,1.90
2022-10-24T21:38:09.821Z,1.93
2022-10-24T21:40:38.374Z,2.20
2022-10-24T21:43:06.641Z,2.53
2022-10-24T21:45:35.344Z,2.20
2022-10-24T21:48:03.649Z,2.40
2022-10-24T21:50:32.405Z,2.60
2022-10-24T21:53:01.358Z,2.80
2022-10-24T21:55:32.211Z,2.80
2022-10-24T21:58:00.530Z,3.20
2022-10-24T22:00:28.921Z,2.90
2022-10-24T22:02:57.411Z,3.27
2022-10-24T22:05:27.002Z,3.60
2022-10-24T22:07:57.248Z,3.07
2022-10-24T22:10:27.821Z,3.60
2022-10-24T22:12:57.515Z,2.40
2022-10-24T22:15:25.925Z,4.43
2022-10-24T22:17:54.290Z,4.87
2022-10-24T22:20:22.832Z,2.70
2022-10-24T22:22:53.309Z,2.73
2022-10-24T22:25:21.555Z,2.50
2022-10-24T22:27:50.254Z,2.20
2022-10-24T22:30:20.206Z,2.20
2022-10-24T22:32:49.086Z,2.80
2022-10-24T22:35:18.683Z,2.90
2022-10-24T22:37:47.668Z,2.00
2022-10-24T22:40:24.829Z,3.00
2022-10-24T22:42:53.874Z,2.30
2022-10-24T22:45:25.582Z,2.40
2022-10-24T22:48:12.231Z,2.60
2022-10-24T22:50:50.607Z,2.00
2022-10-24T22:53:23.380Z,2.00
2022-10-24T22:56:17.680Z,2.33
2022-10-24T22:58:47.196Z,2.00
2022-10-24T23:01:28.883Z,2.20
2022-10-24T23:04:06.266Z,2.03
2022-10-24T23:06:43.812Z,2.10
2022-10-24T23:09:12.324Z,1.90
2022-10-24T23:11:41.213Z,2.23
2022-10-24T23:14:10.916Z,2.07
2022-10-24T23:16:48.093Z,2.00
2022-10-24T23:19:21.021Z,2.53
2022-10-24T23:21:53.272Z,2.17
2022-10-24T23:24:21.996Z,2.30
2022-10-24T23:27:14.633Z,2.70
2022-10-24T23:29:44.771Z,2.90
2022-10-24T23:32:21.605Z,2.57
2022-10-24T23:34:54.337Z,2.20
2022-10-24T23:37:31.904Z,2.63
2022-10-24T23:40:02.822Z,3.07
2022-10-24T23:42:31.687Z,2.70
2022-10-24T23:45:00.504Z,2.70
2022-10-24T23:48:03.315Z,3.10
2022-10-24T23:50:37.985Z,3.63
2022-10-24T23:53:23.961Z,3.30
2022-10-24T23:55:53.521Z,3.50
2022-10-24T23:58:21.871Z,3.60
